Time;durP1;ratioP1;P1;durP2;ratioP2;P2;SDS_P1;SDS_P2;PMS_P1;PMS_P2;Temp;Humidity;BMP_temperature;BMP_pressure;BME280_temperature;BME280_humidity;BME280_pressure;Samples;Min_cycle;Max_cycle;Signal;HPM_P1;HPM_P2
2022/02/06 00:00:52;;;;;;;7.75;5.30;;;;;;;5.44;95.19;100602.91;2071862;28;43918;-75
2022/02/06 00:01:54;;;;;;;9.25;5.20;;;;;;;5.42;95.48;100600.28;2071648;28;46545;-75
2022/02/06 00:02:58;;;;;;;6.28;5.03;;;;;;;5.42;95.50;100591.41;2073160;28;20128;-75
2022/02/06 00:04:01;;;;;;;7.25;4.50;;;;;;;5.42;95.85;100591.41;2071721;28;45441;-75
2022/02/06 00:05:03;;;;;;;9.32;5.97;;;;;;;5.42;95.59;100594.06;2072095;28;43639;-75
2022/02/06 00:06:06;;;;;;;6.72;4.43;;;;;;;5.43;95.99;100594.03;2071778;28;45200;-75
2022/02/06 00:07:09;;;;;;;8.13;4.93;;;;;;;5.42;95.35;100586.09;2071808;28;44752;-75
2022/02/06 00:08:12;;;;;;;8.20;5.05;;;;;;;5.42;96.13;100580.78;2071799;28;44456;-75
2022/02/06 00:09:16;;;;;;;8.95;5.20;;;;;;;5.43;95.64;100579.91;2071521;28;46789;-75
2022/02/06 00:10:18;;;;;;;7.80;4.45;;;;;;;5.43;95.85;100577.25;2071758;28;44826;-74
2022/02/06 00:11:20;;;;;;;8.18;4.97;;;;;;;5.45;96.08;100575.44;2071039;28;45502;-74
2022/02/06 00:12:22;;;;;;;5.50;4.22;;;;;;;5.44;96.44;100568.41;2071151;28;46442;-74
2022/02/06 00:13:24;;;;;;;9.50;4.40;;;;;;;5.44;95.74;100563.09;2071942;28;44459;-75
2022/02/06 00:14:26;;;;;;;7.38;4.60;;;;;;;5.46;95.81;100575.44;2070755;28;45421;-75
2022/02/06 00:15:27;;;;;;;12.38;4.78;;;;;;;5.48;95.88;100578.09;2071126;28;43317;-74
2022/02/06 00:16:32;;;;;;;9.00;5.03;;;;;;;5.47;95.71;100566.59;2071622;28;38485;-75
2022/02/06 00:17:36;;;;;;;7.63;4.88;;;;;;;5.48;96.03;100562.16;2072085;28;45200;-75
2022/02/06 00:18:39;;;;;;;8.15;4.60;;;;;;;5.47;95.96;100558.63;2071061;28;42066;-75
2022/02/06 00:19:43;;;;;;;6.15;4.28;;;;;;;5.48;95.70;100564.81;2071506;28;43951;-75
2022/02/06 00:20:52;;;;;;;5.53;4.65;;;;;;;5.47;95.62;100560.38;2071455;28;44714;-74
2022/02/06 00:21:54;;;;;;;7.63;4.65;;;;;;;5.48;95.70;100565.69;2071602;28;44544;-75
2022/02/06 00:22:59;;;;;;;8.32;4.53;;;;;;;5.48;95.87;100563.03;2071368;28;44260;-74
2022/02/06 00:24:03;;;;;;;6.63;4.60;;;;;;;5.48;96.02;100557.72;2072186;28;45650;-75
2022/02/06 00:26:35;;;;;;;7.05;4.78;;;;;;;5.49;96.15;100540.00;2071446;28;45324;-75
2022/02/06 00:29:09;;;;;;;7.07;4.65;;;;;;;5.48;95.53;100532.97;2059701;28;44211;-75
2022/02/06 00:30:28;;;;;;;5.28;4.07;;;;;;;5.49;95.66;100527.63;2076958;28;46004;-75
2022/02/06 00:31:46;;;;;;;5.97;4.18;;;;;;;5.49;96.55;100529.38;2071002;28;45302;-75
2022/02/06 00:32:54;;;;;;;7.85;4.25;;;;;;;5.49;96.03;100516.13;2071225;28;46586;-75
2022/02/06 00:34:32;;;;;;;7.32;3.80;;;;;;;5.48;95.68;100517.91;2071638;28;44596;-75
2022/02/06 00:35:31;;;;;;;;;;;;;;;5.50;95.71;100515.22;2072206;28;45347;-75
2022/02/06 00:38:24;;;;;;;7.10;3.90;;;;;;;5.51;96.08;100517.88;2071844;28;42894;-75
2022/02/06 00:39:25;;;;;;;5.50;3.67;;;;;;;5.51;96.89;100519.66;2070756;28;46343;-75
2022/02/06 00:41:15;;;;;;;5.60;3.92;;;;;;;5.52;96.23;100513.44;2064262;28;20488;-75
2022/02/06 00:41:51;;;;;;;6.43;3.72;;;;;;;5.53;96.84;100520.53;2064090;28;45124;-75
2022/02/06 00:42:53;;;;;;;7.43;3.45;;;;;;;5.52;96.88;100495.72;2071539;28;45792;-75
2022/02/06 00:44:02;;;;;;;7.70;4.20;;;;;;;5.54;96.91;100490.41;2072142;28;20104;-75
2022/02/06 00:45:04;;;;;;;7.70;3.88;;;;;;;5.53;96.35;100505.47;2070690;28;45270;-75
2022/02/06 00:46:09;;;;;;;5.85;3.88;;;;;;;5.54;96.42;100493.06;2072006;28;43051;-74
2022/02/06 00:47:11;;;;;;;9.90;4.22;;;;;;;5.54;96.45;100491.31;2070931;28;45206;-75
2022/02/06 00:48:14;;;;;;;7.10;4.60;;;;;;;5.54;97.19;100493.97;2071173;28;46322;-74
2022/02/06 00:49:24;;;;;;;9.75;4.15;;;;;;;5.55;96.90;100492.19;2070532;28;42087;-75
2022/02/06 00:50:26;;;;;;;4.82;3.35;;;;;;;5.56;97.12;100488.59;2071415;28;44062;-75
2022/02/06 00:51:36;;;;;;;6.10;3.65;;;;;;;5.58;96.27;100491.25;2071556;28;44546;-75
2022/02/06 00:52:42;;;;;;;8.95;4.07;;;;;;;5.57;96.69;100482.41;2071687;28;45172;-75
2022/02/06 00:53:43;;;;;;;7.35;3.38;;;;;;;5.59;96.60;100490.38;2071981;28;42958;-74
2022/02/06 00:54:45;;;;;;;6.68;3.55;;;;;;;5.60;96.65;100481.50;2070954;28;44289;-75
2022/02/06 00:55:52;;;;;;;6.40;4.07;;;;;;;5.59;96.37;100467.34;2071723;28;20057;-75
2022/02/06 00:56:53;;;;;;;6.85;4.28;;;;;;;5.61;96.35;100476.16;2079166;28;43627;-75
2022/02/06 00:57:55;;;;;;;5.57;4.05;;;;;;;5.61;96.58;100477.97;2078848;28;42977;-75
2022/02/06 00:58:57;;;;;;;4.85;3.75;;;;;;;5.60;96.53;100474.44;2071338;28;39615;-75
2022/02/06 00:59:59;;;;;;;6.72;3.60;;;;;;;5.61;96.22;100464.69;2062811;28;43293;-74
2022/02/06 01:01:01;;;;;;;7.13;3.83;;;;;;;5.59;96.87;100462.03;2070493;28;44288;-75
2022/02/06 01:02:05;;;;;;;5.47;3.75;;;;;;;5.59;97.53;100462.03;2072311;28;20120;-75
2022/02/06 01:03:07;;;;;;;7.10;3.60;;;;;;;5.60;97.31;100463.81;2071713;28;44300;-75
2022/02/06 01:04:28;;;;;;;6.18;3.25;;;;;;;5.62;97.04;100464.66;2071400;28;44306;-74
2022/02/06 01:05:32;;;;;;;4.93;3.10;;;;;;;5.62;97.19;100450.50;2070881;28;42050;-75
2022/02/06 01:06:33;;;;;;;6.20;3.25;;;;;;;5.63;97.28;100446.94;2070513;28;44314;-75
2022/02/06 01:07:35;;;;;;;6.38;3.53;;;;;;;5.63;97.52;100447.81;2063514;28;44312;-76
2022/02/06 01:08:37;;;;;;;4.75;3.60;;;;;;;5.64;96.65;100436.31;2063788;28;44035;-75
2022/02/06 01:09:39;;;;;;;7.18;3.50;;;;;;;5.65;97.34;100446.06;2063391;28;46138;-75
2022/02/06 01:10:40;;;;;;;5.65;3.08;;;;;;;5.66;97.02;100429.19;2062870;28;44477;-75
2022/02/06 01:11:42;;;;;;;8.43;3.80;;;;;;;5.65;96.81;100435.44;2063554;28;45278;-75
2022/02/06 01:12:50;;;;;;;6.45;3.42;;;;;;;5.67;97.45;100438.03;2063629;28;38797;-76
2022/02/06 01:15:20;;;;;;;6.68;3.53;;;;;;;5.69;97.11;100430.97;2079243;28;39066;-75
2022/02/06 01:16:28;;;;;;;7.63;3.10;;;;;;;5.69;96.75;100423.00;2072316;28;45950;-75
2022/02/06 01:17:38;;;;;;;7.10;3.13;;;;;;;5.71;96.99;100432.69;2063481;28;43186;-75
2022/02/06 01:18:53;;;;;;;4.72;3.20;;;;;;;5.72;96.98;100428.25;2078810;28;46779;-75
2022/02/06 01:20:01;;;;;;;8.63;3.20;;;;;;;5.72;97.09;100417.63;2072729;28;43066;-75
2022/02/06 01:21:16;;;;;;;6.75;2.88;;;;;;;5.74;97.04;100421.13;2063063;28;39665;-75
2022/02/06 01:22:24;;;;;;;6.57;3.17;;;;;;;5.77;96.94;100425.56;2070372;28;45551;-76
2022/02/06 01:23:30;;;;;;;7.47;3.28;;;;;;;5.77;96.40;100422.91;2070095;28;44307;-75
2022/02/06 01:24:43;;;;;;;5.30;2.85;;;;;;;5.78;97.15;100429.94;2063383;28;46342;-75
2022/02/06 01:25:54;;;;;;;5.82;2.97;;;;;;;5.78;96.51;100411.34;2063326;28;43294;-76
2022/02/06 01:27:06;;;;;;;6.63;3.17;;;;;;;5.79;96.21;100405.16;2063168;28;42178;-75
2022/02/06 01:28:13;;;;;;;7.47;2.80;;;;;;;5.78;96.88;100411.34;2063512;28;45913;-75
2022/02/06 01:30:32;;;;;;;4.72;2.90;;;;;;;5.81;96.81;100406.00;2079156;28;41860;-75
2022/02/06 01:32:49;;;;;;;7.88;3.00;;;;;;;5.81;97.20;100408.66;2063864;28;44553;-75
2022/02/06 01:33:56;;;;;;;5.80;2.63;;;;;;;5.80;97.20;100406.94;2063446;28;45078;-75
2022/02/06 01:35:05;;;;;;;6.93;2.70;;;;;;;5.83;96.67;100406.88;2079135;28;44487;-75
2022/02/06 01:36:20;;;;;;;8.50;2.75;;;;;;;5.82;97.15;100395.38;2075567;28;44003;-75
2022/02/06 01:40:58;;;;;;;;;;;;;;;5.86;96.58;100388.25;2071923;28;43847;-75
2022/02/06 01:42:04;;;;;;;4.90;2.38;;;;;;;5.85;96.96;100394.44;2071087;28;45401;-75
2022/02/06 01:43:17;;;;;;;5.20;2.80;;;;;;;5.86;96.28;100386.47;2072255;28;44513;-75
2022/02/06 02:02:06;;;;;;;6.65;2.35;;;;;;;6.00;96.90;100351.78;2071023;28;45708;-75
2022/02/06 02:03:23;;;;;;;5.40;2.65;;;;;;;5.99;97.12;100350.00;2071135;28;45206;-75
2022/02/06 02:12:50;;;;;;;7.03;2.42;;;;;;;6.02;96.59;100322.53;2071293;28;44589;-75
2022/02/06 02:14:09;;;;;;;4.75;2.30;;;;;;;6.03;96.91;100325.16;2071286;28;43898;-75
2022/02/06 02:20:06;;;;;;;5.65;2.40;;;;;;;6.06;97.09;100309.16;2071529;28;34005;-75
2022/02/06 02:21:46;;;;;;;6.03;2.42;;;;;;;6.06;96.77;100302.97;2071865;28;20034;-75
2022/02/06 02:25:26;;;;;;;5.60;2.53;;;;;;;6.08;96.71;100302.06;2071045;28;45362;-75
2022/02/06 02:26:51;;;;;;;6.97;2.72;;;;;;;6.09;96.56;100306.47;2071030;28;44352;-75
2022/02/06 02:30:35;;;;;;;6.28;2.97;;;;;;;6.10;97.24;100302.03;2071272;28;43487;-75
2022/02/06 02:46:30;;;;;;;7.95;2.22;;;;;;;6.10;97.23;100273.69;2079300;28;46761;-75
2022/02/06 02:47:34;;;;;;;6.90;2.00;;;;;;;6.13;97.06;100266.56;2072601;28;42469;-75
2022/02/06 02:48:38;;;;;;;6.07;2.00;;;;;;;6.13;97.05;100261.25;2072310;28;43804;-75
2022/02/06 02:49:45;;;;;;;7.32;2.22;;;;;;;6.14;97.07;100262.97;2071998;28;44446;-75
2022/02/06 02:50:54;;;;;;;6.03;1.83;;;;;;;6.15;97.18;100262.97;2073285;28;45128;-76
2022/02/06 02:52:02;;;;;;;5.95;2.30;;;;;;;6.16;97.47;100263.88;2077643;28;46177;-75
2022/02/06 02:53:13;;;;;;;5.40;2.03;;;;;;;6.16;96.74;100247.91;2072584;28;43268;-75
2022/02/06 02:54:23;;;;;;;6.32;2.13;;;;;;;6.17;97.20;100252.31;2072156;28;44174;-75
2022/02/06 02:56:44;;;;;;;6.15;2.10;;;;;;;6.20;97.19;100236.31;2078729;28;43464;-75
2022/02/06 02:57:55;;;;;;;6.13;1.55;;;;;;;6.20;96.64;100241.63;2072618;28;44517;-74
2022/02/06 02:59:27;;;;;;;;;;;;;;;6.20;96.65;100236.31;2072421;28;46075;-74
2022/02/06 03:01:43;;;;;;;4.22;1.90;;;;;;;6.19;96.60;100227.47;2071967;28;20038;-74
2022/02/06 03:02:45;;;;;;;7.00;2.15;;;;;;;6.19;96.73;100229.25;2065231;28;42938;-75
2022/02/06 03:03:47;;;;;;;4.28;2.40;;;;;;;6.19;97.35;100230.16;2072072;28;44057;-75
2022/02/06 03:04:53;;;;;;;4.97;2.10;;;;;;;6.21;96.78;100227.44;2071790;28;46265;-75
2022/02/06 03:06:00;;;;;;;6.05;2.50;;;;;;;6.21;97.24;100233.66;2071910;28;42927;-75
2022/02/06 03:07:03;;;;;;;3.03;2.10;;;;;;;6.22;97.23;100208.81;2071866;28;46275;-75
2022/02/06 03:08:07;;;;;;;2.95;2.20;;;;;;;6.22;96.65;100219.44;2072627;28;36627;-75
2022/02/06 03:09:09;;;;;;;4.88;2.13;;;;;;;6.22;96.67;100222.09;2072213;28;43941;-75
2022/02/06 03:10:13;;;;;;;5.53;2.15;;;;;;;6.22;96.61;100214.13;2072701;28;44932;-76
2022/02/06 03:11:15;;;;;;;6.20;2.15;;;;;;;6.24;96.65;100214.09;2072584;28;40017;-75
2022/02/06 03:12:23;;;;;;;5.40;1.88;;;;;;;6.24;97.23;100216.75;2072132;28;46473;-75
2022/02/06 03:13:36;;;;;;;5.03;2.08;;;;;;;6.24;96.97;100211.44;2072226;28;44269;-75
2022/02/06 03:14:43;;;;;;;5.75;1.98;;;;;;;6.24;96.65;100211.44;2071917;28;45320;-75
2022/02/06 03:16:00;;;;;;;4.93;1.80;;;;;;;6.25;96.72;100203.44;2072089;28;44921;-75
2022/02/06 03:17:04;;;;;;;3.28;1.92;;;;;;;6.25;96.38;100208.75;2072416;28;44038;-76
2022/02/06 03:18:14;;;;;;;2.38;1.40;;;;;;;6.28;96.52;100205.16;2071957;28;45157;-75
2022/02/06 03:19:18;;;;;;;6.25;1.88;;;;;;;6.28;96.81;100197.19;2072304;28;44747;-75
2022/02/06 03:20:21;;;;;;;4.35;1.95;;;;;;;6.28;96.83;100192.78;2072217;28;44121;-75
2022/02/06 03:21:27;;;;;;;4.90;1.70;;;;;;;6.27;96.68;100195.44;2072043;28;46710;-75
2022/02/06 03:22:35;;;;;;;5.68;1.70;;;;;;;6.27;96.71;100191.00;2072273;28;44600;-75
2022/02/06 03:23:39;;;;;;;3.30;1.40;;;;;;;6.26;97.35;100186.59;2071454;28;44291;-75
2022/02/06 03:24:43;;;;;;;4.65;1.73;;;;;;;6.29;96.46;100185.66;2072828;28;20051;-75
2022/02/06 03:25:54;;;;;;;5.10;1.40;;;;;;;6.29;96.42;100188.31;2071286;28;43844;-75
2022/02/06 03:26:56;;;;;;;6.85;1.83;;;;;;;6.29;96.91;100183.88;2072185;28;44798;-75
2022/02/06 03:27:58;;;;;;;3.28;1.50;;;;;;;6.33;96.75;100184.69;2079527;28;45731;-75
2022/02/06 03:29:00;;;;;;;5.00;1.77;;;;;;;6.32;96.26;100182.97;2079506;28;41627;-75
2022/02/06 03:30:02;;;;;;;4.22;1.48;;;;;;;6.33;96.94;100181.16;2072314;28;43047;-75
2022/02/06 03:31:05;;;;;;;4.10;1.40;;;;;;;6.33;96.59;100186.47;2071127;28;45655;-75
2022/02/06 03:32:07;;;;;;;5.10;1.33;;;;;;;6.36;96.54;100176.66;2070987;28;43793;-75
2022/02/06 03:33:10;;;;;;;3.92;1.30;;;;;;;6.37;96.41;100178.44;2072206;28;43009;-75
2022/02/06 03:34:12;;;;;;;5.95;1.60;;;;;;;6.37;96.49;100191.72;2071312;28;43087;-75
2022/02/06 03:35:16;;;;;;;5.60;1.35;;;;;;;6.36;96.42;100171.34;2071442;28;41195;-75
2022/02/06 03:36:20;;;;;;;4.07;1.20;;;;;;;6.38;96.48;100181.97;2071445;28;44212;-75
2022/02/06 03:37:24;;;;;;;6.40;1.40;;;;;;;6.40;96.08;100181.03;2071990;28;44785;-75
2022/02/06 03:38:26;;;;;;;3.25;1.38;;;;;;;6.40;96.41;100178.34;2072007;28;43250;-75
2022/02/06 03:39:29;;;;;;;3.85;1.60;;;;;;;6.41;96.75;100184.56;2071999;28;45383;-75
2022/02/06 03:40:39;;;;;;;5.70;1.60;;;;;;;6.39;96.15;100181.94;2072172;28;45943;-75
2022/02/06 03:41:53;;;;;;;3.75;1.35;;;;;;;6.40;96.47;100186.34;2072478;28;45149;-75
2022/02/06 03:43:06;;;;;;;4.55;1.42;;;;;;;6.42;96.33;100186.31;2072014;28;43041;-75
2022/02/06 03:44:20;;;;;;;7.55;1.45;;;;;;;6.40;97.08;100196.09;2071920;28;45649;-75
2022/02/06 03:45:24;;;;;;;3.85;1.40;;;;;;;6.39;96.68;100183.69;2071769;28;43345;-75
2022/02/06 03:46:30;;;;;;;5.57;1.55;;;;;;;6.38;96.74;100189.94;2071203;28;45224;-75
2022/02/06 03:47:56;;;;;;;4.05;1.30;;;;;;;6.38;96.97;100177.50;2079579;28;44152;-75
2022/02/06 03:50:33;;;;;;;5.32;1.85;;;;;;;6.37;96.80;100189.06;2062726;28;44967;-75
2022/02/06 03:51:37;;;;;;;2.88;1.25;;;;;;;6.38;96.67;100174.84;2071522;28;43867;-75
2022/02/06 03:52:46;;;;;;;5.80;1.50;;;;;;;6.39;96.97;100173.97;2071170;28;47838;-74
2022/02/06 03:53:53;;;;;;;3.53;1.30;;;;;;;6.39;96.96;100176.63;2072173;28;42399;-75
2022/02/06 03:54:55;;;;;;;4.55;1.55;;;;;;;6.41;97.03;100171.28;2071398;28;38930;-75
2022/02/06 03:55:59;;;;;;;4.93;2.30;;;;;;;6.42;97.00;100179.19;2071666;28;43475;-75
2022/02/06 03:57:01;;;;;;;5.43;2.10;;;;;;;6.40;96.76;100172.19;2072032;28;44081;-75
2022/02/06 03:58:02;;;;;;;3.80;1.65;;;;;;;6.42;96.95;100173.88;2072242;28;42315;-75
2022/02/06 03:59:04;;;;;;;4.93;2.05;;;;;;;6.42;96.79;100171.22;2071951;28;43525;-75
2022/02/06 04:00:07;;;;;;;6.97;1.65;;;;;;;6.42;96.91;100168.56;2071779;28;45537;-75
2022/02/06 04:01:09;;;;;;;5.85;2.05;;;;;;;6.42;96.84;100171.22;2071678;28;44282;-74
2022/02/06 04:02:11;;;;;;;4.13;1.35;;;;;;;6.42;96.99;100163.25;2071200;28;42735;-75
2022/02/06 04:03:12;;;;;;;6.53;1.80;;;;;;;6.43;97.39;100161.50;2071142;28;44872;-74
2022/02/06 04:04:14;;;;;;;5.43;1.70;;;;;;;6.44;97.31;100173.88;2079343;28;44212;-75
2022/02/06 04:05:16;;;;;;;3.03;1.40;;;;;;;6.43;97.40;100165.03;2072154;28;44011;-74
2022/02/06 04:06:18;;;;;;;4.63;1.52;;;;;;;6.44;97.28;100150.84;2072115;28;44693;-75
2022/02/06 04:07:20;;;;;;;8.48;1.67;;;;;;;6.45;96.65;100168.53;2071265;28;43475;-74
2022/02/06 04:08:22;;;;;;;5.82;1.70;;;;;;;6.47;96.75;100165.84;2071118;28;42816;-74
2022/02/06 04:09:32;;;;;;;5.55;1.60;;;;;;;6.45;97.22;100157.88;2087801;28;45911;-75
2022/02/06 04:10:41;;;;;;;4.15;1.40;;;;;;;6.46;97.17;100164.97;2085407;28;45221;-75
2022/02/06 04:11:50;;;;;;;7.95;1.88;;;;;;;6.46;97.04;100156.09;2072640;28;20038;-75
2022/02/06 04:12:52;;;;;;;5.88;1.55;;;;;;;6.45;97.27;100157.00;2071330;28;43329;-75
2022/02/06 04:14:04;;;;;;;4.10;1.90;;;;;;;6.45;97.34;100155.22;2071342;28;44367;-74
2022/02/06 04:15:19;;;;;;;4.75;1.67;;;;;;;6.46;97.11;100145.47;2071470;28;45528;-75
2022/02/06 04:16:37;;;;;;;4.85;1.90;;;;;;;6.46;97.00;100142.78;2071573;28;44996;-75
2022/02/06 04:17:48;;;;;;;6.25;1.73;;;;;;;6.45;97.39;100141.94;2071077;28;44225;-75
2022/02/06 04:18:53;;;;;;;5.22;1.27;;;;;;;6.46;97.40;100148.13;2075079;28;42517;-75
2022/02/06 04:19:55;;;;;;;6.38;1.70;;;;;;;6.46;97.10;100143.69;2077143;28;43332;-74
2022/02/06 04:20:59;;;;;;;4.97;1.60;;;;;;;6.46;97.19;100143.69;2071881;28;45751;-75
2022/02/06 04:22:01;;;;;;;3.33;1.33;;;;;;;6.48;97.51;100147.19;2071804;28;39599;-74
2022/02/06 04:23:03;;;;;;;5.57;1.48;;;;;;;6.47;96.97;100144.56;2071672;28;43887;-75
2022/02/06 04:24:05;;;;;;;2.88;1.40;;;;;;;6.48;97.33;100130.38;2071593;28;43260;-75
2022/02/06 04:25:07;;;;;;;7.30;1.60;;;;;;;6.48;97.26;100135.69;2071750;28;43303;-75
2022/02/06 04:26:09;;;;;;;5.75;1.80;;;;;;;6.49;96.94;100138.28;2071833;28;43476;-75
2022/02/06 04:27:10;;;;;;;4.25;1.25;;;;;;;6.49;96.94;100132.13;2071596;28;44029;-75
2022/02/06 04:28:12;;;;;;;5.85;1.38;;;;;;;6.50;96.74;100126.78;2071134;28;46303;-75
2022/02/06 04:29:14;;;;;;;6.00;1.50;;;;;;;6.52;96.92;100112.59;2071745;28;44498;-75
2022/02/06 04:30:18;;;;;;;7.97;1.73;;;;;;;6.53;96.40;100127.59;2072875;28;21033;-75
2022/02/06 04:31:19;;;;;;;3.97;1.42;;;;;;;6.54;96.74;100113.41;2070979;28;46159;-75
2022/02/06 04:32:22;;;;;;;6.72;1.45;;;;;;;6.55;96.81;100123.13;2071069;28;43073;-75
2022/02/06 04:33:24;;;;;;;6.03;1.50;;;;;;;6.56;97.09;100128.44;2079136;28;44223;-74
2022/02/06 04:34:28;;;;;;;3.97;1.30;;;;;;;6.58;96.71;100115.09;2071605;28;45613;-75
2022/02/06 04:35:34;;;;;;;6.10;1.55;;;;;;;6.57;96.63;100121.31;2071970;28;45439;-75
2022/02/06 04:36:48;;;;;;;9.02;1.90;;;;;;;6.56;97.09;100116.91;2078905;28;45104;-75
2022/02/06 04:38:04;;;;;;;9.10;1.48;;;;;;;6.57;96.82;100123.97;2087499;28;40653;-75
2022/02/06 04:39:33;;;;;;;8.70;2.28;;;;;;;6.58;97.22;100113.31;2083245;28;45322;-75
2022/02/06 04:40:55;;;;;;;10.48;1.83;;;;;;;6.60;96.83;100116.81;2072105;28;29063;-75
2022/02/06 04:43:52;;;;;;;10.18;1.90;;;;;;;6.61;96.96;100110.59;2071553;28;45331;-74
2022/02/06 04:48:14;;;;;;;8.73;1.48;;;;;;;6.65;96.93;100084.81;2071003;28;46233;-74
2022/02/06 04:49:32;;;;;;;10.18;1.90;;;;;;;6.66;97.10;100097.22;2067365;28;45431;-74
2022/02/06 05:15:52;;;;;;;12.82;1.60;;;;;;;6.83;96.17;100065.78;2074027;28;19922;-74
2022/02/06 05:18:45;;;;;;;10.60;1.73;;;;;;;6.85;96.28;100044.47;2063702;28;42553;-74
2022/02/06 05:22:39;;;;;;;9.98;2.10;;;;;;;6.90;95.68;100042.59;2063300;28;41286;-74
2022/02/06 05:26:32;;;;;;;13.35;1.70;;;;;;;6.94;95.58;100038.09;2063340;28;43042;-73
2022/02/06 05:30:19;;;;;;;13.10;1.42;;;;;;;6.92;95.73;100032.78;2063733;28;35189;-74
2022/02/06 05:31:40;;;;;;;12.02;1.40;;;;;;;6.93;95.90;100025.66;2062895;28;46225;-73
2022/02/06 05:33:03;;;;;;;11.82;1.40;;;;;;;6.94;95.78;100028.31;2070525;28;42113;-74
2022/02/06 05:34:06;;;;;;;10.00;1.48;;;;;;;6.93;95.85;100031.00;2062637;28;42881;-73
2022/02/06 05:35:11;;;;;;;11.88;1.83;;;;;;;6.93;95.97;100017.69;2070058;28;43838;-74
2022/02/06 05:36:12;;;;;;;13.07;2.03;;;;;;;6.93;95.95;100012.38;2071203;28;38982;-74
2022/02/06 05:37:14;;;;;;;10.35;1.58;;;;;;;6.94;95.86;100011.47;2071346;28;45187;-74
2022/02/06 05:38:16;;;;;;;12.43;1.77;;;;;;;6.93;95.83;100025.66;2071708;28;44398;-74
2022/02/06 05:39:18;;;;;;;10.93;1.60;;;;;;;6.93;96.31;100015.03;2071538;28;20081;-73
2022/02/06 05:40:19;;;;;;;14.23;1.92;;;;;;;6.94;95.96;100022.13;2071077;28;44574;-74
2022/02/06 05:41:21;;;;;;;18.88;2.67;;;;;;;6.94;95.68;100022.97;2071782;28;45461;-75
2022/02/06 05:42:23;;;;;;;14.57;1.60;;;;;;;6.94;96.03;100016.78;2071062;28;39737;-74
2022/02/06 05:43:27;;;;;;;9.82;1.60;;;;;;;6.93;95.88;100013.25;2070944;28;43282;-74
2022/02/06 05:44:29;;;;;;;9.43;1.20;;;;;;;6.94;96.06;100008.81;2070876;28;43540;-73
2022/02/06 05:45:31;;;;;;;9.55;1.98;;;;;;;6.93;96.04;100007.94;2070891;28;46180;-74
2022/02/06 05:46:33;;;;;;;14.95;2.25;;;;;;;6.93;96.19;100012.38;2071403;28;42803;-74
2022/02/06 05:47:35;;;;;;;11.85;1.75;;;;;;;6.91;96.23;100014.19;2070469;28;43572;-74
2022/02/06 05:48:36;;;;;;;12.27;1.40;;;;;;;6.91;96.21;100003.53;2079438;28;42087;-74
2022/02/06 05:49:39;;;;;;;13.60;1.67;;;;;;;6.93;96.24;100015.03;2086982;28;20037;-73
2022/02/06 05:50:42;;;;;;;9.43;1.23;;;;;;;6.92;96.19;100007.97;2071396;28;43716;-74
2022/02/06 05:51:47;;;;;;;13.60;1.45;;;;;;;6.93;95.95;100004.38;2071224;28;42239;-73
2022/02/06 05:52:50;;;;;;;11.52;1.50;;;;;;;6.93;96.13;100007.03;2071607;28;43118;-75
2022/02/06 05:53:52;;;;;;;14.07;1.33;;;;;;;6.92;96.13;99997.34;2071187;28;45798;-74
2022/02/06 05:54:54;;;;;;;13.38;1.45;;;;;;;6.93;96.22;99999.06;2071513;28;45115;-74
2022/02/06 05:55:59;;;;;;;14.20;1.58;;;;;;;6.92;96.07;99989.34;2071171;28;41392;-73
2022/02/06 05:57:01;;;;;;;12.82;1.63;;;;;;;6.92;95.80;99997.34;2071484;28;42104;-74
2022/02/06 05:58:02;;;;;;;12.38;1.27;;;;;;;6.91;96.28;100003.53;2070168;28;44168;-74
2022/02/06 05:59:04;;;;;;;11.15;1.30;;;;;;;6.92;96.32;100005.31;2070919;28;44294;-73
2022/02/06 06:00:07;;;;;;;11.40;1.23;;;;;;;6.90;96.29;99993.84;2070524;28;44106;-74
2022/02/06 06:01:14;;;;;;;12.45;1.63;;;;;;;6.90;96.43;99999.16;2072384;28;20039;-74
2022/02/06 06:02:17;;;;;;;9.95;1.33;;;;;;;6.90;96.28;99988.50;2077294;28;43120;-74
2022/02/06 06:03:18;;;;;;;11.35;1.20;;;;;;;6.88;96.45;99988.53;2070841;28;43047;-75
2022/02/06 06:04:20;;;;;;;8.13;1.58;;;;;;;6.90;96.36;99988.50;2070454;28;44477;-74
2022/02/06 06:05:22;;;;;;;12.68;1.42;;;;;;;6.87;96.18;99987.69;2071348;28;43080;-74
2022/02/06 06:06:24;;;;;;;13.45;1.63;;;;;;;6.88;96.27;99986.75;2071212;28;46518;-74
2022/02/06 06:07:27;;;;;;;12.75;1.67;;;;;;;6.87;96.41;99986.78;2072180;28;20093;-75
2022/02/06 06:08:30;;;;;;;10.60;1.30;;;;;;;6.87;96.45;99985.03;2071145;28;44072;-73
2022/02/06 06:09:32;;;;;;;11.07;1.23;;;;;;;6.88;96.29;99976.09;2071045;28;45719;-73
2022/02/06 06:10:34;;;;;;;12.25;1.48;;;;;;;6.91;96.17;99985.81;2071649;28;45063;-74
2022/02/06 06:11:36;;;;;;;14.05;1.40;;;;;;;6.89;95.93;99982.28;2070620;28;46573;-73
2022/02/06 06:12:38;;;;;;;10.35;1.67;;;;;;;6.90;96.17;99981.41;2070929;28;44338;-74
2022/02/06 06:13:40;;;;;;;13.52;1.40;;;;;;;6.91;95.88;99982.25;2070619;28;45275;-74
2022/02/06 06:14:44;;;;;;;13.63;1.65;;;;;;;6.91;96.03;99984.91;2070276;28;47843;-74
2022/02/06 06:15:46;;;;;;;10.13;1.17;;;;;;;6.91;96.24;99980.50;2071086;28;43605;-74
2022/02/06 06:16:47;;;;;;;15.05;1.60;;;;;;;6.90;96.19;99993.84;2070621;28;43935;-74
2022/02/06 06:17:49;;;;;;;11.95;1.35;;;;;;;6.91;96.40;99988.47;2071260;28;44461;-74
2022/02/06 06:18:52;;;;;;;15.05;2.13;;;;;;;6.91;96.13;99984.91;2071010;28;44013;-74
2022/02/06 06:19:56;;;;;;;10.10;1.88;;;;;;;6.91;96.17;99975.19;2071254;28;46349;-73
2022/02/06 06:20:57;;;;;;;12.48;1.45;;;;;;;6.91;96.24;99985.81;2070933;28;43316;-74
2022/02/06 06:22:00;;;;;;;9.98;1.48;;;;;;;6.92;96.32;99978.69;2071136;28;43882;-74
2022/02/06 06:23:02;;;;;;;14.20;2.05;;;;;;;6.92;96.15;99976.03;2071800;28;20878;-74
2022/02/06 06:24:04;;;;;;;14.60;1.63;;;;;;;6.91;96.08;99983.16;2071073;28;45782;-74
2022/02/06 06:25:07;;;;;;;11.65;1.75;;;;;;;6.92;96.38;99970.72;2070099;28;46194;-73
2022/02/06 06:26:15;;;;;;;11.82;1.45;;;;;;;6.92;96.60;99970.72;2070732;28;44430;-73
2022/02/06 06:27:16;;;;;;;14.68;1.63;;;;;;;6.92;96.24;99966.25;2071167;28;45435;-73
2022/02/06 06:28:18;;;;;;;8.60;1.52;;;;;;;6.94;96.15;99958.25;2071290;28;45668;-74
2022/02/06 06:29:21;;;;;;;17.00;2.00;;;;;;;6.92;96.00;99960.94;2070600;28;40589;-73
2022/02/06 06:30:24;;;;;;;12.80;1.88;;;;;;;6.93;96.22;99959.16;2070523;28;44951;-73
2022/02/06 06:31:28;;;;;;;11.60;1.40;;;;;;;6.94;96.09;99952.94;2078087;28;43105;-73
2022/02/06 06:32:32;;;;;;;12.93;1.85;;;;;;;6.93;96.11;99956.47;2071268;28;46310;-74
2022/02/06 06:33:33;;;;;;;17.40;1.92;;;;;;;6.95;96.37;99960.00;2071024;28;46449;-75
2022/02/06 06:34:35;;;;;;;16.75;2.13;;;;;;;6.94;96.15;99960.91;2070894;28;39069;-74
2022/02/06 06:35:38;;;;;;;15.23;1.90;;;;;;;6.94;96.12;99950.25;2070242;28;45611;-74
2022/02/06 06:36:41;;;;;;;16.10;2.30;;;;;;;6.95;95.87;99950.22;2071266;28;44851;-74
2022/02/06 06:37:43;;;;;;;11.85;2.10;;;;;;;6.95;96.08;99942.25;2078784;28;38892;-75
2022/02/06 06:38:45;;;;;;;17.08;1.95;;;;;;;6.94;96.05;99948.47;2078513;28;46091;-73
2022/02/06 06:39:49;;;;;;;16.02;2.05;;;;;;;6.95;96.34;99955.56;2078218;28;44595;-74
2022/02/06 06:40:55;;;;;;;13.23;1.80;;;;;;;6.96;95.96;99941.31;2077864;28;44475;-73
2022/02/06 06:41:56;;;;;;;15.15;2.13;;;;;;;6.97;96.04;99939.56;2069771;28;45679;-74
2022/02/06 06:42:58;;;;;;;16.67;1.92;;;;;;;6.97;95.91;99936.91;2070502;28;43332;-73
2022/02/06 06:43:59;;;;;;;15.30;2.20;;;;;;;6.99;95.65;99937.72;2070309;28;45142;-73
2022/02/06 06:45:02;;;;;;;15.68;2.58;;;;;;;7.00;95.63;99936.78;2070590;28;44410;-73
2022/02/06 06:46:04;;;;;;;20.33;2.50;;;;;;;7.01;95.37;99933.25;2070462;28;42876;-73
2022/02/06 06:47:10;;;;;;;21.15;2.58;;;;;;;7.02;95.40;99950.97;2070618;28;44923;-73
2022/02/06 06:48:12;;;;;;;17.42;2.05;;;;;;;7.01;95.67;99943.88;2070551;28;45656;-73
2022/02/06 06:49:18;;;;;;;17.23;1.90;;;;;;;7.03;95.06;99926.97;2070824;28;44986;-75
2022/02/06 06:50:20;;;;;;;12.70;1.70;;;;;;;7.06;95.22;99934.00;2071340;28;43207;-75
2022/02/06 06:51:22;;;;;;;13.55;1.83;;;;;;;7.06;94.47;99932.22;2070836;28;43277;-73
2022/02/06 06:52:28;;;;;;;18.17;1.70;;;;;;;7.06;95.20;99932.22;2071132;28;45683;-73
2022/02/06 06:53:30;;;;;;;15.35;2.00;;;;;;;7.06;95.19;99928.69;2078405;28;45443;-72
2022/02/06 06:54:40;;;;;;;14.50;1.92;;;;;;;7.09;94.65;99928.63;2078377;28;46535;-73
2022/02/06 06:55:44;;;;;;;17.20;2.25;;;;;;;7.08;94.95;99929.50;2071364;28;44176;-72
2022/02/06 06:56:58;;;;;;;11.50;1.67;;;;;;;7.07;95.16;99933.97;2071322;28;42264;-73